createdAt,value
2022-09-01T00:00:38.220Z,99.90
2022-09-01T00:03:41.967Z,99.90
2022-09-01T00:06:46.555Z,99.90
2022-09-01T00:09:49.823Z,99.90
2022-09-01T00:12:52.819Z,99.90
2022-09-01T00:15:55.914Z,99.90
2022-09-01T00:18:59.400Z,99.90
2022-09-01T00:22:04.351Z,99.90
2022-09-01T00:25:08.630Z,99.90
2022-09-01T00:28:11.726Z,99.90
2022-09-01T00:31:16.288Z,99.90
2022-09-01T00:34:21.126Z,99.90
2022-09-01T00:37:25.781Z,99.90
2022-09-01T00:40:29.287Z,99.90
2022-09-01T00:43:39.390Z,99.90
2022-09-01T00:46:49.959Z,99.90
2022-09-01T00:49:58.591Z,99.90
2022-09-01T00:53:03.235Z,99.90
2022-09-01T00:56:08.292Z,99.90
2022-09-01T00:59:12.553Z,99.90
2022-09-01T01:02:15.610Z,99.90
2022-09-01T01:05:18.868Z,99.90
2022-09-01T01:08:31.532Z,99.90
2022-09-01T01:11:34.571Z,99.90
2022-09-01T01:14:40.007Z,99.90
2022-09-01T01:17:43.015Z,99.90
2022-09-01T01:21:04.990Z,99.90
2022-09-01T01:24:27.083Z,99.90
2022-09-01T01:27:33.645Z,99.90
2022-09-01T01:30:45.300Z,99.90
2022-09-01T01:33:50.863Z,99.90
2022-09-01T01:36:55.182Z,99.90
2022-09-01T01:39:59.563Z,99.90
2022-09-01T01:43:02.584Z,99.90
2022-09-01T01:46:08.145Z,99.90
2022-09-01T01:49:13.220Z,99.90
2022-09-01T01:52:17.364Z,99.90
2022-09-01T01:55:24.906Z,99.90
2022-09-01T01:58:29.192Z,99.90
2022-09-01T02:01:32.321Z,99.90
2022-09-01T02:04:35.624Z,99.90
2022-09-01T02:07:43.566Z,99.90
2022-09-01T02:10:50.067Z,99.90
2022-09-01T02:13:56.169Z,99.90
2022-09-01T02:16:59.424Z,99.90
2022-09-01T02:20:03.259Z,99.90
2022-09-01T02:23:10.532Z,99.90
2022-09-01T02:26:17.458Z,99.90
2022-09-01T02:29:28.843Z,99.90
2022-09-01T02:32:32.049Z,99.90
2022-09-01T02:35:37.783Z,99.90
2022-09-01T02:38:41.783Z,99.90
2022-09-01T02:41:46.354Z,99.90
2022-09-01T02:44:49.362Z,99.90
2022-09-01T02:47:53.955Z,99.90
2022-09-01T02:50:59.377Z,99.90
2022-09-01T02:54:02.932Z,99.90
2022-09-01T02:57:09.109Z,99.90
2022-09-01T03:00:20.752Z,99.90
2022-09-01T03:03:24.446Z,99.90
2022-09-01T03:06:28.651Z,99.90
2022-09-01T03:09:33.749Z,99.90
2022-09-01T03:12:38.116Z,99.90
2022-09-01T03:15:41.858Z,99.90
2022-09-01T03:18:44.850Z,99.90
2022-09-01T03:21:48.670Z,99.90
2022-09-01T03:24:51.673Z,99.90
2022-09-01T03:27:56.026Z,99.90
2022-09-01T03:30:59.910Z,99.90
2022-09-01T03:34:03.280Z,99.90
2022-09-01T03:37:07.932Z,99.90
2022-09-01T03:40:13.091Z,99.90
2022-09-01T03:43:18.989Z,99.90
2022-09-01T03:46:23.723Z,99.90
2022-09-01T03:49:28.498Z,99.90
2022-09-01T03:52:31.671Z,99.90
2022-09-01T03:55:38.146Z,99.90
2022-09-01T03:58:45.442Z,99.90
2022-09-01T04:01:49.042Z,99.90
2022-09-01T04:04:52.578Z,99.90
2022-09-01T04:07:57.615Z,99.90
2022-09-01T04:11:03.853Z,99.90
2022-09-01T04:14:11.092Z,99.90
2022-09-01T04:17:31.458Z,99.90
2022-09-01T04:20:47.779Z,99.90
2022-09-01T04:23:50.801Z,99.90
2022-09-01T04:26:54.749Z,99.90
2022-09-01T04:30:01.422Z,99.90
2022-09-01T04:33:04.578Z,99.90
2022-09-01T04:36:19.248Z,99.90
2022-09-01T04:39:23.105Z,99.90
2022-09-01T04:42:29.005Z,99.90
2022-09-01T04:45:36.502Z,99.90
2022-09-01T04:48:42.219Z,99.90
2022-09-01T04:51:53.908Z,99.90
2022-09-01T04:54:58.111Z,99.90
2022-09-01T04:58:08.321Z,99.90
2022-09-01T05:01:19.587Z,99.90
2022-09-01T05:04:24.857Z,99.90
2022-09-01T05:07:27.977Z,99.90
2022-09-01T05:10:33.338Z,99.90
2022-09-01T05:13:38.903Z,99.90
2022-09-01T05:16:43.889Z,99.90
2022-09-01T05:19:51.087Z,99.90
2022-09-01T05:22:54.834Z,99.90
2022-09-01T05:25:57.800Z,99.90
2022-09-01T05:29:03.241Z,99.90
2022-09-01T05:32:10.089Z,99.90
2022-09-01T05:35:13.157Z,99.90
2022-09-01T05:38:16.202Z,99.90
2022-09-01T05:41:20.928Z,99.90
2022-09-01T05:44:24.067Z,99.90
2022-09-01T05:47:28.841Z,99.90
2022-09-01T05:50:31.801Z,99.90
2022-09-01T05:53:35.055Z,99.90
2022-09-01T05:56:43.966Z,99.90
2022-09-01T05:59:54.113Z,99.90
2022-09-01T06:02:58.914Z,99.90
2022-09-01T06:06:05.543Z,99.90
2022-09-01T06:09:10.597Z,99.90
2022-09-01T06:12:18.902Z,99.90
2022-09-01T06:15:22.823Z,99.90
2022-09-01T06:18:27.821Z,99.90
2022-09-01T06:21:31.576Z,99.90
2022-09-01T06:24:34.939Z,99.90
2022-09-01T06:27:44.554Z,99.90
2022-09-01T06:30:49.068Z,99.90
2022-09-01T06:33:53.897Z,99.90
2022-09-01T06:36:57.271Z,99.90
2022-09-01T06:40:00.591Z,99.90
2022-09-01T06:43:08.002Z,99.90
2022-09-01T06:46:11.073Z,99.90
2022-09-01T06:49:15.584Z,99.90
2022-09-01T06:52:20.788Z,99.90
2022-09-01T06:55:23.788Z,99.90
2022-09-01T06:58:26.872Z,99.90
2022-09-01T07:01:30.336Z,99.90
2022-09-01T07:04:36.011Z,99.90
2022-09-01T07:08:05.303Z,99.90
2022-09-01T07:14:25.127Z,99.90
2022-09-01T07:17:30.591Z,99.90
2022-09-01T07:21:02.826Z,99.90
2022-09-01T07:24:07.873Z,99.90
2022-09-01T07:27:14.032Z,99.90
2022-09-01T07:30:19.024Z,99.90
2022-09-01T07:33:46.309Z,99.90
2022-09-01T07:43:45.708Z,99.90
2022-09-01T07:47:19.474Z,99.90
2022-09-01T07:53:40.031Z,99.90
2022-09-01T07:56:43.167Z,99.90
2022-09-01T07:59:46.237Z,99.90
2022-09-01T08:02:55.179Z,99.90
2022-09-01T08:06:06.403Z,99.90
2022-09-01T08:09:11.912Z,99.90
2022-09-01T08:12:29.332Z,99.90
2022-09-01T08:15:41.552Z,99.90
2022-09-01T08:18:55.669Z,99.90
2022-09-01T08:21:58.687Z,99.90
2022-09-01T08:25:03.014Z,99.90
2022-09-01T08:28:07.722Z,99.90
2022-09-01T08:31:12.504Z,99.90
2022-09-01T08:34:16.982Z,99.90
2022-09-01T08:37:20.330Z,99.90
2022-09-01T08:40:25.733Z,99.90
2022-09-01T08:43:43.753Z,99.90
2022-09-01T08:46:47.179Z,99.90
2022-09-01T08:49:51.363Z,99.90
2022-09-01T08:53:09.144Z,99.90
2022-09-01T08:56:14.587Z,99.90
2022-09-01T08:59:18.282Z,99.90
2022-09-01T09:02:33.742Z,99.90
2022-09-01T09:05:50.880Z,99.90
2022-09-01T09:08:59.714Z,99.90
2022-09-01T09:12:16.609Z,99.90
2022-09-01T09:15:27.864Z,99.90
2022-09-01T09:18:39.479Z,99.90
2022-09-01T09:21:44.647Z,99.90
2022-09-01T09:24:52.346Z,99.90
2022-09-01T09:28:04.064Z,99.90
2022-09-01T09:31:26.698Z,99.90
2022-09-01T09:34:35.951Z,99.90
2022-09-01T09:37:39.073Z,99.90
2022-09-01T09:41:15.995Z,99.90
2022-09-01T09:44:27.139Z,99.90
2022-09-01T09:47:44.044Z,99.90
2022-09-01T09:50:47.352Z,99.90
2022-09-01T09:53:51.441Z,99.90
2022-09-01T09:57:13.354Z,99.90
2022-09-01T10:00:24.570Z,99.90
2022-09-01T10:03:37.426Z,99.90
2022-09-01T10:06:45.267Z,99.90
2022-09-01T10:09:49.125Z,99.90
2022-09-01T10:12:53.831Z,99.90
2022-09-01T10:16:00.454Z,99.90
2022-09-01T10:19:12.707Z,99.90
2022-09-01T10:22:16.473Z,99.40
2022-09-01T10:25:22.527Z,99.50
2022-09-01T10:28:26.749Z,98.20
2022-09-01T10:31:33.009Z,98.70
2022-09-01T10:34:42.060Z,97.40
2022-09-01T10:37:45.791Z,96.80
2022-09-01T10:41:07.204Z,96.60
2022-09-01T10:44:13.181Z,96.00
2022-09-01T10:47:29.913Z,96.00
2022-09-01T10:50:36.844Z,96.00
2022-09-01T10:53:41.101Z,95.20
2022-09-01T10:56:51.367Z,96.10
2022-09-01T10:59:56.850Z,95.40
2022-09-01T11:03:51.838Z,94.60
2022-09-01T11:07:17.221Z,94.00
2022-09-01T11:10:40.052Z,93.40
2022-09-01T11:13:49.930Z,94.00
2022-09-01T11:17:16.970Z,94.50
2022-09-01T11:20:26.797Z,95.50
2022-09-01T11:23:32.329Z,96.40
2022-09-01T11:26:49.615Z,97.10
2022-09-01T11:29:55.543Z,96.00
2022-09-01T11:33:07.815Z,94.00
2022-09-01T11:36:20.359Z,92.90
2022-09-01T11:39:35.906Z,92.30
2022-09-01T11:42:43.731Z,92.30
2022-09-01T11:46:03.181Z,92.80
2022-09-01T11:49:09.862Z,92.90
2022-09-01T11:52:17.497Z,92.30
2022-09-01T11:55:31.748Z,92.20
2022-09-01T11:58:39.263Z,92.60
2022-09-01T12:01:42.734Z,92.70
2022-09-01T12:04:46.313Z,93.00
2022-09-01T12:07:49.395Z,92.90
2022-09-01T12:11:05.518Z,93.20
2022-09-01T12:14:12.017Z,94.20
2022-09-01T12:17:21.836Z,95.00
2022-09-01T12:20:29.624Z,94.80
2022-09-01T12:23:34.878Z,94.40
2022-09-01T12:26:40.426Z,94.10
2022-09-01T12:29:44.646Z,93.10
2022-09-01T12:32:48.530Z,93.20
2022-09-01T12:35:54.961Z,93.10
2022-09-01T12:39:21.329Z,92.80
2022-09-01T12:42:29.855Z,91.10
2022-09-01T12:45:46.466Z,90.20
2022-09-01T12:48:49.773Z,89.40
2022-09-01T12:52:10.922Z,91.10
2022-09-01T12:58:46.097Z,90.10
2022-09-01T13:01:49.360Z,86.50
2022-09-01T13:04:53.098Z,83.20
2022-09-01T13:07:57.419Z,82.20
2022-09-01T13:11:04.549Z,83.20
2022-09-01T13:14:09.159Z,85.90
2022-09-01T13:17:14.200Z,87.40
2022-09-01T13:20:18.010Z,88.90
2022-09-01T13:23:21.734Z,90.30
2022-09-01T13:26:25.694Z,90.80
2022-09-01T13:29:30.042Z,91.30
2022-09-01T13:32:33.165Z,92.30
2022-09-01T13:35:36.871Z,93.10
2022-09-01T13:38:40.380Z,93.10
2022-09-01T13:41:43.458Z,93.70
2022-09-01T13:44:49.670Z,94.10
2022-09-01T13:51:26.451Z,94.30
2022-09-01T13:54:29.496Z,93.90
2022-09-01T13:57:36.579Z,94.10
2022-09-01T14:00:44.313Z,94.10
2022-09-01T14:03:51.924Z,93.50
2022-09-01T14:06:55.159Z,92.70
2022-09-01T14:09:58.182Z,92.80
2022-09-01T14:13:01.877Z,93.20
2022-09-01T14:16:13.095Z,93.40
2022-09-01T14:19:16.706Z,92.70
2022-09-01T14:22:20.264Z,93.00
2022-09-01T14:25:23.546Z,93.20
2022-09-01T14:28:26.558Z,92.30
2022-09-01T14:31:31.951Z,92.50
2022-09-01T14:34:35.427Z,92.50
2022-09-01T14:37:38.931Z,92.10
2022-09-01T14:40:43.271Z,92.60
2022-09-01T14:43:46.392Z,93.00
2022-09-01T14:46:50.809Z,93.40
2022-09-01T14:49:54.930Z,93.20
2022-09-01T14:52:58.271Z,93.10
2022-09-01T14:56:05.122Z,93.20
2022-09-01T14:59:08.956Z,93.40
2022-09-01T15:02:13.708Z,93.30
2022-09-01T15:05:16.907Z,93.10
2022-09-01T15:08:20.282Z,93.00
2022-09-01T15:11:23.494Z,92.70
2022-09-01T15:14:27.210Z,93.10
2022-09-01T15:17:31.579Z,93.10
2022-09-01T15:20:46.779Z,94.00
2022-09-01T15:23:50.867Z,94.60
2022-09-01T15:26:54.970Z,95.30
2022-09-01T15:29:58.008Z,95.90
2022-09-01T15:33:02.876Z,96.10
2022-09-01T15:36:06.425Z,96.10
2022-09-01T15:39:11.176Z,96.10
2022-09-01T15:45:21.581Z,96.70
2022-09-01T15:48:27.228Z,96.90
2022-09-01T15:51:33.939Z,97.10
2022-09-01T15:54:39.849Z,96.90
2022-09-01T15:57:42.871Z,97.10
2022-09-01T16:00:47.178Z,97.20
2022-09-01T16:03:51.568Z,97.30
2022-09-01T16:06:56.465Z,97.20
2022-09-01T16:09:59.625Z,97.70
2022-09-01T16:13:03.132Z,97.50
2022-09-01T16:16:22.464Z,97.50
2022-09-01T16:19:34.316Z,97.80
2022-09-01T16:22:39.889Z,97.80
2022-09-01T16:25:43.443Z,98.10
2022-09-01T16:28:50.086Z,98.00
2022-09-01T16:31:56.226Z,98.40
2022-09-01T16:35:04.184Z,98.70
2022-09-01T16:38:17.667Z,98.60
2022-09-01T16:41:42.383Z,98.70
2022-09-01T16:44:57.777Z,98.70
2022-09-01T16:48:08.033Z,99.10
2022-09-01T16:51:23.385Z,98.90
2022-09-01T16:54:35.329Z,98.90
2022-09-01T16:57:44.158Z,98.50
2022-09-01T17:01:03.074Z,98.80
2022-09-01T17:04:23.567Z,98.90
2022-09-01T17:07:32.300Z,99.00
2022-09-01T17:10:42.572Z,99.00
2022-09-01T17:13:51.844Z,98.90
2022-09-01T17:17:03.151Z,99.10
2022-09-01T17:20:08.032Z,99.00
2022-09-01T17:23:24.793Z,99.10
2022-09-01T17:26:32.508Z,99.40
2022-09-01T17:29:44.707Z,99.70
2022-09-01T17:33:17.553Z,99.60
2022-09-01T17:36:30.620Z,99.90
2022-09-01T17:39:49.330Z,99.90
2022-09-01T17:43:02.203Z,99.90
2022-09-01T17:46:14.768Z,99.90
2022-09-01T17:49:23.938Z,99.90
2022-09-01T17:52:40.377Z,99.90
2022-09-01T17:55:50.611Z,99.90
2022-09-01T17:59:02.762Z,99.90
2022-09-01T18:02:50.815Z,99.90
2022-09-01T18:06:00.355Z,99.90
2022-09-01T18:09:03.926Z,99.90
2022-09-01T18:12:10.787Z,99.90
2022-09-01T18:15:17.479Z,99.90
2022-09-01T18:18:36.769Z,99.90
2022-09-01T18:21:49.289Z,99.90
2022-09-01T18:24:59.659Z,99.90
2022-09-01T18:28:04.244Z,99.90
2022-09-01T18:31:23.811Z,99.90
2022-09-01T18:34:39.030Z,99.90
2022-09-01T18:37:54.135Z,99.90
2022-09-01T18:41:05.581Z,99.90
2022-09-01T18:44:26.448Z,99.90
2022-09-01T18:47:32.893Z,99.90
2022-09-01T18:50:45.677Z,99.90
2022-09-01T18:53:53.595Z,99.90
2022-09-01T18:57:00.714Z,99.90
2022-09-01T19:00:18.911Z,99.90
2022-09-01T19:03:30.061Z,99.90
2022-09-01T19:06:42.456Z,99.90
2022-09-01T19:09:52.158Z,99.90
2022-09-01T19:13:03.717Z,99.90
2022-09-01T19:16:18.458Z,99.90
2022-09-01T19:19:34.555Z,99.90
2022-09-01T19:22:45.350Z,99.90
2022-09-01T19:25:51.070Z,99.90
2022-09-01T19:28:58.152Z,99.90
2022-09-01T19:32:08.272Z,99.90
2022-09-01T19:35:14.097Z,99.90
2022-09-01T19:38:27.396Z,99.90
2022-09-01T19:41:35.562Z,99.90
2022-09-01T19:44:47.069Z,99.90
2022-09-01T19:47:56.437Z,99.90
2022-09-01T19:51:04.169Z,99.90
2022-09-01T19:54:16.109Z,99.90
2022-09-01T19:57:26.916Z,99.90
2022-09-01T20:00:41.876Z,99.90
2022-09-01T20:03:51.907Z,99.90
2022-09-01T20:07:00.186Z,99.90
2022-09-01T20:10:18.485Z,99.90
2022-09-01T20:13:34.806Z,99.90
2022-09-01T20:16:41.659Z,99.90
2022-09-01T20:19:55.242Z,99.90
2022-09-01T20:23:03.461Z,99.90
2022-09-01T20:26:15.150Z,99.90
2022-09-01T20:29:25.943Z,99.90
2022-09-01T20:32:35.977Z,99.90
2022-09-01T20:35:45.242Z,99.90
2022-09-01T20:39:26.879Z,99.90
2022-09-01T20:42:38.419Z,99.90
2022-09-01T20:45:42.638Z,99.90
2022-09-01T20:48:45.783Z,99.90
2022-09-01T20:51:56.627Z,99.90
2022-09-01T20:55:06.414Z,99.90
2022-09-01T20:58:16.803Z,99.90
2022-09-01T21:01:27.081Z,99.90
2022-09-01T21:04:42.321Z,99.90
2022-09-01T21:07:56.378Z,99.90
2022-09-01T21:11:04.943Z,99.90
2022-09-01T21:14:31.426Z,99.90
2022-09-01T21:17:41.878Z,99.90
2022-09-01T21:20:57.719Z,99.90
2022-09-01T21:24:02.154Z,99.90
2022-09-01T21:27:11.451Z,99.90
2022-09-01T21:30:16.434Z,99.90
2022-09-01T21:33:19.474Z,99.90
2022-09-01T21:36:22.514Z,99.90
2022-09-01T21:39:26.864Z,99.90
2022-09-01T21:42:33.295Z,99.90
2022-09-01T21:45:38.571Z,99.90
2022-09-01T21:48:41.787Z,99.90
2022-09-01T21:51:45.032Z,99.90
2022-09-01T21:54:49.752Z,99.90
2022-09-01T21:57:52.903Z,99.90
2022-09-01T22:00:57.548Z,99.90
2022-09-01T22:04:00.982Z,99.90
2022-09-01T22:07:05.222Z,99.90
2022-09-01T22:10:12.708Z,99.90
2022-09-01T22:13:16.493Z,99.90
2022-09-01T22:16:21.263Z,99.90
2022-09-01T22:19:24.571Z,99.90
2022-09-01T22:22:27.584Z,99.90
2022-09-01T22:25:33.918Z,99.90
2022-09-01T22:28:37.459Z,99.90
2022-09-01T22:31:41.229Z,99.90
2022-09-01T22:34:44.273Z,99.90
2022-09-01T22:37:47.494Z,99.90
2022-09-01T22:40:54.940Z,99.90
2022-09-01T22:43:59.344Z,99.90
2022-09-01T22:47:02.831Z,99.90
2022-09-01T22:50:07.736Z,99.90
2022-09-01T22:53:11.890Z,99.90
2022-09-01T22:56:20.300Z,99.90
2022-09-01T22:59:24.354Z,99.90
2022-09-01T23:02:28.457Z,99.90
2022-09-01T23:05:32.161Z,99.90
2022-09-01T23:08:35.481Z,99.90
2022-09-01T23:11:40.242Z,99.90
2022-09-01T23:14:43.281Z,99.90
2022-09-01T23:17:46.329Z,99.90
2022-09-01T23:20:49.406Z,99.90
2022-09-01T23:23:58.373Z,99.90
2022-09-01T23:27:03.131Z,99.90
2022-09-01T23:30:08.892Z,99.90
2022-09-01T23:33:11.886Z,99.90
2022-09-01T23:36:18.354Z,99.90
2022-09-01T23:39:21.373Z,99.90
2022-09-01T23:42:25.754Z,99.90
2022-09-01T23:45:35.759Z,99.90
2022-09-01T23:48:39.259Z,99.90
2022-09-01T23:51:42.647Z,99.90
2022-09-01T23:54:45.663Z,99.90
2022-09-01T23:57:49.986Z,99.90
